Time;durP1;ratioP1;P1;durP2;ratioP2;P2;SDS_P1;SDS_P2;PMS_P1;PMS_P2;Temp;Humidity;BMP_temperature;BMP_pressure;BME280_temperature;BME280_humidity;BME280_pressure;Samples;Min_cycle;Max_cycle;Signal;HPM_P1;HPM_P2
2022/04/16 00:00:11;;;;;;;17.27;10.48;;;7.90;99.90;;;;;;5114494;28;20047;-76
2022/04/16 00:02:38;;;;;;;14.27;8.20;;;7.80;99.90;;;;;;5112973;28;20058;-76
2022/04/16 00:05:05;;;;;;;12.68;8.27;;;7.70;99.90;;;;;;5115707;28;20050;-75
2022/04/16 00:07:31;;;;;;;9.90;7.82;;;7.60;99.90;;;;;;5115082;28;20124;-76
2022/04/16 00:09:57;;;;;;;12.57;8.13;;;7.60;99.90;;;;;;5113318;28;20048;-75
2022/04/16 00:12:23;;;;;;;9.18;7.35;;;7.50;99.90;;;;;;5113720;28;20046;-75
2022/04/16 00:14:49;;;;;;;12.75;8.77;;;7.40;99.90;;;;;;5115570;28;20047;-76
2022/04/16 00:17:16;;;;;;;13.80;8.30;;;7.30;99.90;;;;;;5112919;28;20499;-76
2022/04/16 00:19:43;;;;;;;13.05;9.18;;;7.20;99.90;;;;;;5115097;28;20118;-75
2022/04/16 00:22:12;;;;;;;16.02;9.05;;;7.10;99.90;;;;;;5115003;28;20043;-75
2022/04/16 00:24:39;;;;;;;13.02;9.15;;;7.00;99.90;;;;;;5114048;28;20044;-76
2022/04/16 00:27:07;;;;;;;12.95;9.00;;;7.00;99.90;;;;;;5113338;28;20126;-76
2022/04/16 00:29:34;;;;;;;12.27;9.30;;;6.90;99.90;;;;;;5096640;28;20040;-76
2022/04/16 00:32:00;;;;;;;14.40;10.50;;;6.80;99.90;;;;;;5113022;28;20039;-76
2022/04/16 00:34:26;;;;;;;12.75;9.77;;;6.80;99.90;;;;;;5114385;28;20047;-76
2022/04/16 00:36:52;;;;;;;12.52;9.05;;;6.70;99.90;;;;;;5115032;28;20123;-76
2022/04/16 00:39:18;;;;;;;12.80;9.52;;;6.70;99.90;;;;;;5112537;28;20066;-76
2022/04/16 00:41:44;;;;;;;13.73;8.95;;;6.70;99.90;;;;;;5096485;28;20050;-76
2022/04/16 00:44:10;;;;;;;14.63;9.05;;;6.60;99.90;;;;;;5114052;28;20048;-75
2022/04/16 00:46:36;;;;;;;11.32;8.60;;;6.60;99.90;;;;;;5096479;28;20044;-76
2022/04/16 00:49:02;;;;;;;12.48;9.07;;;6.60;99.90;;;;;;5112988;28;20101;-76
2022/04/16 00:51:30;;;;;;;11.48;8.68;;;6.50;99.90;;;;;;5114164;27;20051;-76
2022/04/16 00:53:56;;;;;;;12.55;8.30;;;6.50;99.90;;;;;;5114232;28;20054;-76
2022/04/16 00:56:22;;;;;;;17.65;9.45;;;6.50;99.90;;;;;;5114572;28;20487;-76
2022/04/16 00:58:48;;;;;;;15.60;10.75;;;6.50;99.90;;;;;;5113555;28;20046;-76
2022/04/16 01:01:14;;;;;;;16.02;9.57;;;6.50;99.90;;;;;;5114501;28;20104;-76
2022/04/16 01:03:43;;;;;;;12.85;9.98;;;6.50;99.90;;;;;;5129997;27;20039;-76
2022/04/16 01:06:15;;;;;;;13.27;9.25;;;6.50;99.90;;;;;;5113322;28;20114;-76
2022/04/16 01:08:44;;;;;;;11.15;8.63;;;6.50;99.90;;;;;;5130026;27;20047;-76
2022/04/16 01:11:12;;;;;;;10.15;9.05;;;6.40;99.90;;;;;;5113242;28;20455;-76
2022/04/16 01:13:38;;;;;;;10.82;9.10;;;6.40;99.90;;;;;;5113096;28;20053;-76
2022/04/16 01:16:05;;;;;;;16.35;9.98;;;6.30;99.90;;;;;;5113195;28;20151;-76
2022/04/16 01:18:31;;;;;;;16.85;9.20;;;6.30;99.90;;;;;;5112454;28;20047;-76
2022/04/16 01:20:57;;;;;;;15.40;9.55;;;6.30;99.90;;;;;;5112413;28;20432;-76
2022/04/16 01:23:23;;;;;;;14.32;10.50;;;6.30;99.90;;;;;;5113700;28;20126;-76
2022/04/16 01:25:49;;;;;;;16.48;11.32;;;6.30;99.90;;;;;;5114241;28;20047;-76
2022/04/16 01:28:15;;;;;;;14.18;10.00;;;6.30;99.90;;;;;;5112723;28;20047;-76
2022/04/16 01:30:41;;;;;;;16.60;10.48;;;6.20;99.90;;;;;;5095855;28;20050;-76
2022/04/16 01:33:06;;;;;;;16.48;9.35;;;6.20;99.90;;;;;;5112306;28;20056;-76
2022/04/16 01:35:32;;;;;;;21.60;10.55;;;6.10;99.90;;;;;;5120925;27;20044;-76
2022/04/16 01:37:58;;;;;;;16.98;11.65;;;6.10;99.90;;;;;;5092638;28;20112;-76
2022/04/16 01:40:27;;;;;;;20.92;11.48;;;6.00;99.90;;;;;;5097304;28;20554;-76
2022/04/16 01:42:56;;;;;;;17.02;11.82;;;6.00;99.90;;;;;;5114072;28;20043;-76
2022/04/16 01:45:23;;;;;;;17.67;11.80;;;6.00;99.90;;;;;;5113714;28;20114;-76
2022/04/16 01:47:53;;;;;;;18.30;11.77;;;5.90;99.90;;;;;;5112645;28;20500;-76
2022/04/16 01:50:19;;;;;;;19.73;12.23;;;5.90;99.90;;;;;;5092033;28;20484;-76
2022/04/16 01:52:46;;;;;;;19.70;11.57;;;5.90;99.90;;;;;;5099332;28;20039;-76
2022/04/16 01:55:12;;;;;;;18.17;12.77;;;5.90;99.90;;;;;;5111958;28;20052;-76
2022/04/16 01:57:38;;;;;;;19.20;11.95;;;5.90;99.90;;;;;;5113606;28;20057;-76
2022/04/16 02:00:14;;;;;;;23.80;14.30;;;5.80;99.90;;;;;;5113791;28;20048;-76
2022/04/16 02:02:41;;;;;;;20.08;12.98;;;5.80;99.90;;;;;;5094861;28;20495;-76
2022/04/16 02:05:09;;;;;;;17.13;12.00;;;5.80;99.90;;;;;;5113900;28;20047;-76
2022/04/16 02:07:35;;;;;;;24.50;13.23;;;5.80;99.90;;;;;;5113396;28;20052;-76
2022/04/16 02:10:03;;;;;;;18.75;13.40;;;5.70;99.90;;;;;;5113019;28;20130;-76
2022/04/16 02:12:28;;;;;;;12.60;10.00;;;5.70;99.90;;;;;;5113394;28;20093;-76
2022/04/16 02:14:54;;;;;;;11.80;7.93;;;5.60;99.90;;;;;;5112280;28;20052;-76
2022/04/16 02:17:20;;;;;;;14.85;9.48;;;5.50;99.90;;;;;;5110998;28;20047;-76
2022/04/16 02:19:48;;;;;;;16.00;10.13;;;5.50;99.90;;;;;;5095352;28;20052;-76
2022/04/16 02:22:15;;;;;;;14.15;10.05;;;5.40;99.90;;;;;;5113555;28;20115;-76
2022/04/16 02:24:42;;;;;;;16.33;10.60;;;5.40;99.90;;;;;;5112910;28;20048;-76
2022/04/16 02:27:07;;;;;;;14.23;11.15;;;5.40;99.90;;;;;;5112384;28;20036;-76
2022/04/16 02:29:34;;;;;;;18.45;13.65;;;5.30;99.90;;;;;;5111393;28;20383;-76
2022/04/16 02:32:02;;;;;;;17.02;12.25;;;5.30;99.90;;;;;;5111783;28;20051;-76
2022/04/16 02:34:28;;;;;;;17.83;12.65;;;5.30;99.90;;;;;;5111899;28;20529;-76
2022/04/16 02:36:53;;;;;;;23.20;14.30;;;5.30;99.90;;;;;;5128781;28;20047;-76
2022/04/16 02:39:19;;;;;;;22.83;13.80;;;5.20;99.90;;;;;;5113122;28;20507;-76
2022/04/16 02:41:45;;;;;;;25.55;14.60;;;5.20;99.90;;;;;;5094732;28;20036;-76
2022/04/16 02:47:05;;;;;;;21.67;14.82;;;5.20;99.90;;;;;;5128387;27;20059;-76
2022/04/16 02:47:05;;;;;;;21.17;13.50;;;5.10;99.90;;;;;;5111873;28;20052;-76
2022/04/16 02:49:43;;;;;;;26.55;14.20;;;5.10;99.90;;;;;;5113112;28;20051;-76
2022/04/16 02:52:09;;;;;;;21.27;14.00;;;5.00;99.90;;;;;;5114745;28;20046;-76
2022/04/16 02:54:37;;;;;;;18.63;12.88;;;5.00;99.90;;;;;;5098442;28;20105;-76
2022/04/16 02:57:03;;;;;;;23.02;14.77;;;5.00;99.90;;;;;;5116609;27;20578;-76
2022/04/16 02:59:29;;;;;;;29.70;17.63;;;5.00;99.90;;;;;;5116203;28;20032;-76
2022/04/16 03:01:55;;;;;;;23.80;14.40;;;4.90;99.90;;;;;;5115938;28;20491;-76
2022/04/16 03:04:21;;;;;;;29.83;16.42;;;4.90;99.90;;;;;;5116901;28;20043;-76
2022/04/16 03:06:47;;;;;;;27.83;16.23;;;4.90;99.90;;;;;;5114407;28;20046;-76
2022/04/16 03:09:13;;;;;;;26.65;17.10;;;4.90;99.90;;;;;;5116583;28;20061;-76
2022/04/16 03:11:40;;;;;;;18.63;14.45;;;4.90;99.90;;;;;;5115989;28;20032;-76
2022/04/16 03:19:35;;;;;;;19.83;12.07;;;4.80;99.90;;;;;;5114401;28;20044;-76
2022/04/16 03:22:00;;;;;;;23.58;16.38;;;4.80;99.90;;;;;;5115291;28;20070;-76
2022/04/16 03:24:26;;;;;;;23.27;16.40;;;4.80;99.90;;;;;;5116214;28;20538;-76
2022/04/16 03:26:53;;;;;;;22.25;16.65;;;4.80;99.90;;;;;;5115365;28;20471;-76
2022/04/16 03:29:18;;;;;;;32.08;17.95;;;4.80;99.90;;;;;;5116363;28;20479;-76
2022/04/16 03:31:44;;;;;;;30.25;18.52;;;4.80;99.90;;;;;;5115819;28;20053;-75
2022/04/16 03:34:10;;;;;;;32.72;16.85;;;4.80;99.90;;;;;;5114066;28;20391;-76
2022/04/16 03:36:36;;;;;;;29.15;19.15;;;4.80;99.90;;;;;;5116061;28;20518;-76
2022/04/16 03:39:01;;;;;;;40.53;23.30;;;4.70;99.90;;;;;;5132040;27;20396;-76
2022/04/16 03:41:27;;;;;;;35.58;22.20;;;4.80;99.90;;;;;;5130865;27;20031;-76
2022/04/16 03:43:53;;;;;;;30.58;18.67;;;4.80;99.90;;;;;;5116205;28;20046;-76
2022/04/16 03:46:18;;;;;;;33.30;19.95;;;4.80;99.90;;;;;;5097828;28;20085;-76
2022/04/16 03:48:44;;;;;;;44.50;22.75;;;4.80;99.90;;;;;;5114670;28;20048;-76
2022/04/16 03:51:10;;;;;;;40.63;24.50;;;4.80;99.90;;;;;;5131432;27;20048;-76
2022/04/16 03:53:36;;;;;;;40.10;23.48;;;4.90;99.90;;;;;;5114443;28;20127;-76
2022/04/16 04:01:30;;;;;;;47.27;27.60;;;5.20;99.90;;;;;;5114822;28;20040;-76
2022/04/16 04:03:56;;;;;;;55.67;30.05;;;5.30;99.90;;;;;;5113250;28;20486;-76
2022/04/16 04:06:23;;;;;;;47.67;27.13;;;5.50;99.90;;;;;;5115687;28;20044;-76
2022/04/16 04:08:49;;;;;;;55.20;28.23;;;5.60;99.90;;;;;;5113191;28;20125;-76
2022/04/16 04:11:15;;;;;;;48.35;28.02;;;5.70;99.90;;;;;;5115349;28;20036;-76
2022/04/16 04:13:40;;;;;;;50.13;28.60;;;5.80;99.90;;;;;;5115339;28;20126;-76
2022/04/16 04:16:06;;;;;;;42.55;27.23;;;6.00;99.90;;;;;;5114715;28;20541;-76
2022/04/16 04:18:32;;;;;;;51.58;29.20;;;6.00;99.90;;;;;;5113843;28;20092;-76
2022/04/16 04:20:58;;;;;;;46.47;27.85;;;6.10;99.90;;;;;;5115172;28;20048;-76
2022/04/16 04:23:24;;;;;;;49.60;29.60;;;6.20;99.90;;;;;;5113913;28;20055;-76
2022/04/16 04:25:50;;;;;;;48.35;29.50;;;6.20;99.90;;;;;;5113341;28;20551;-76
2022/04/16 04:28:16;;;;;;;47.88;30.33;;;6.30;99.90;;;;;;5131052;27;20127;-76
2022/04/16 04:30:42;;;;;;;52.92;31.50;;;6.40;99.90;;;;;;5112751;28;20126;-76
2022/04/16 04:33:08;;;;;;;46.40;29.05;;;6.40;99.90;;;;;;5113967;28;20119;-76
2022/04/16 04:35:34;;;;;;;45.38;30.60;;;6.50;99.90;;;;;;5114821;28;20458;-76
2022/04/16 04:37:59;;;;;;;44.83;29.60;;;6.60;99.90;;;;;;5113971;28;20044;-76
2022/04/16 04:40:25;;;;;;;49.88;31.70;;;6.70;99.90;;;;;;5130842;27;20054;-76
2022/04/16 04:42:51;;;;;;;50.05;31.35;;;7.30;99.90;;;;;;5113034;28;20047;-76
2022/04/16 04:45:17;;;;;;;46.13;30.35;;;6.80;99.90;;;;;;5113662;28;20044;-76
2022/04/16 04:47:43;;;;;;;43.33;29.67;;;6.80;99.90;;;;;;5114899;28;20051;-76
2022/04/16 04:50:09;;;;;;;44.03;29.25;;;6.90;99.90;;;;;;5112590;28;20056;-76
2022/04/16 04:52:38;;;;;;;43.42;29.77;;;6.90;99.90;;;;;;5095829;28;20054;-76
2022/04/16 04:55:08;;;;;;;43.30;30.08;;;7.00;99.90;;;;;;5113461;28;20094;-76
2022/04/16 04:57:34;;;;;;;41.97;30.17;;;7.10;99.90;;;;;;5113959;28;20043;-76
2022/04/16 04:59:59;;;;;;;45.10;32.03;;;7.10;99.90;;;;;;5112931;28;20505;-76
2022/04/16 05:02:25;;;;;;;42.38;29.77;;;7.20;99.90;;;;;;5096322;28;20035;-76
2022/04/16 05:04:51;;;;;;;40.83;30.00;;;7.30;99.90;;;;;;5111391;28;20043;-76
2022/04/16 05:07:17;;;;;;;41.42;30.38;;;7.30;99.90;;;;;;5129462;27;20046;-76
2022/04/16 05:09:42;;;;;;;38.10;29.13;;;7.40;99.90;;;;;;5114486;28;20123;-76
2022/04/16 05:12:09;;;;;;;40.45;31.48;;;7.40;99.90;;;;;;5111777;28;20043;-76
2022/04/16 05:14:35;;;;;;;40.13;29.63;;;7.50;99.90;;;;;;5113708;28;20043;-76
2022/04/16 05:17:01;;;;;;;38.78;28.98;;;7.50;99.90;;;;;;5130205;27;20387;-76
2022/04/16 05:19:27;;;;;;;41.03;30.23;;;7.50;99.90;;;;;;5111971;28;20048;-76
2022/04/16 05:21:52;;;;;;;43.53;30.02;;;7.60;99.90;;;;;;5113056;28;20071;-76
2022/04/16 05:24:18;;;;;;;40.38;30.05;;;7.60;99.90;;;;;;5112590;28;20840;-76
2022/04/16 05:26:44;;;;;;;41.15;29.42;;;7.60;99.90;;;;;;5113142;28;20090;-76
2022/04/16 05:29:10;;;;;;;41.25;30.70;;;7.70;99.90;;;;;;5112779;28;20100;-76
2022/04/16 05:31:36;;;;;;;37.92;28.42;;;7.70;99.90;;;;;;5114012;28;20048;-76
2022/04/16 05:34:20;;;;;;;40.35;30.00;;;7.70;99.90;;;;;;5112650;28;20051;-76
2022/04/16 05:36:48;;;;;;;37.33;28.80;;;7.80;99.90;;;;;;5112636;28;20126;-76
2022/04/16 05:39:14;;;;;;;41.22;30.25;;;7.80;99.90;;;;;;5112730;28;20043;-76
2022/04/16 05:41:40;;;;;;;41.92;31.10;;;7.80;99.90;;;;;;5111808;28;20043;-76
2022/04/16 05:44:06;;;;;;;41.35;30.42;;;7.80;99.90;;;;;;5112670;28;20055;-76
2022/04/16 05:46:32;;;;;;;38.97;28.92;;;7.80;99.90;;;;;;5112159;28;20039;-77
2022/04/16 05:48:58;;;;;;;36.72;27.13;;;7.90;99.90;;;;;;5112259;28;20085;-78
2022/04/16 05:51:27;;;;;;;33.35;22.83;;;7.90;99.90;;;;;;5095506;28;20058;-78
2022/04/16 05:53:53;;;;;;;32.08;22.58;;;7.90;99.90;;;;;;5112743;28;20047;-76
2022/04/16 05:56:20;;;;;;;31.52;22.02;;;7.90;99.90;;;;;;5112629;28;20040;-77
2022/04/16 05:58:46;;;;;;;28.73;20.92;;;7.90;99.90;;;;;;5114012;28;20104;-77
2022/04/16 06:01:13;;;;;;;30.35;19.50;;;7.90;99.90;;;;;;5111730;28;20115;-77
2022/04/16 06:03:40;;;;;;;24.85;17.88;;;7.90;99.90;;;;;;5113842;28;20043;-77
2022/04/16 06:06:09;;;;;;;23.63;16.58;;;7.90;99.90;;;;;;5112365;28;20047;-77
2022/04/16 06:08:36;;;;;;;24.27;17.88;;;7.90;99.90;;;;;;5112705;28;20051;-77
2022/04/16 06:11:02;;;;;;;21.92;16.83;;;7.90;99.90;;;;;;5113183;28;20051;-77
2022/04/16 06:13:31;;;;;;;24.38;15.85;;;7.90;99.90;;;;;;5113592;28;20494;-77
2022/04/16 06:15:58;;;;;;;20.52;15.57;;;7.90;99.90;;;;;;5111442;28;20048;-77
2022/04/16 06:18:24;;;;;;;23.42;15.63;;;7.90;99.90;;;;;;5113061;28;20114;-78
2022/04/16 06:20:49;;;;;;;23.65;15.38;;;8.00;99.90;;;;;;5095504;28;20551;-78
2022/04/16 06:23:18;;;;;;;23.33;14.95;;;8.00;99.90;;;;;;5111776;28;20104;-77
2022/04/16 06:25:44;;;;;;;20.88;14.02;;;8.00;99.90;;;;;;5114652;28;20040;-77
2022/04/16 06:28:09;;;;;;;19.55;13.90;;;8.00;99.90;;;;;;5117605;28;20045;-77
2022/04/16 06:30:35;;;;;;;22.17;14.52;;;8.10;99.90;;;;;;5115661;28;20118;-77
2022/04/16 06:33:01;;;;;;;20.98;14.25;;;8.10;99.90;;;;;;5116429;28;20039;-77
2022/04/16 06:35:27;;;;;;;19.67;13.65;;;8.20;99.90;;;;;;5117310;28;20040;-78
2022/04/16 06:37:53;;;;;;;20.17;12.75;;;8.20;99.90;;;;;;5116588;28;20039;-77
2022/04/16 06:40:18;;;;;;;18.65;12.52;;;8.30;99.90;;;;;;5117190;28;20452;-77
2022/04/16 06:42:44;;;;;;;22.00;13.38;;;8.30;99.90;;;;;;5115577;28;20504;-77
2022/04/16 06:45:12;;;;;;;19.42;12.60;;;8.40;99.90;;;;;;5117252;28;20044;-77
2022/04/16 06:47:38;;;;;;;17.35;12.48;;;8.40;99.90;;;;;;5116841;28;20047;-77
2022/04/16 06:50:05;;;;;;;18.80;13.32;;;8.50;99.90;;;;;;5114877;28;20455;-77
2022/04/16 06:52:31;;;;;;;14.55;11.25;;;8.50;99.90;;;;;;5115448;28;20480;-77
2022/04/16 06:54:57;;;;;;;18.17;11.23;;;8.50;99.90;;;;;;5116649;28;20051;-76
2022/04/16 06:57:24;;;;;;;17.33;12.07;;;8.50;99.90;;;;;;5116246;28;20047;-76
2022/04/16 06:59:50;;;;;;;17.90;12.20;;;8.60;99.90;;;;;;5116804;27;20051;-77
2022/04/16 07:02:16;;;;;;;18.40;11.95;;;8.70;99.90;;;;;;5116737;28;20144;-77
2022/04/16 07:04:42;;;;;;;18.25;11.45;;;8.80;99.90;;;;;;5097781;28;20402;-76
2022/04/16 07:07:11;;;;;;;14.57;11.02;;;8.80;99.90;;;;;;5115568;28;20048;-76
2022/04/16 07:09:40;;;;;;;17.15;10.98;;;8.90;99.90;;;;;;5115526;28;20050;-76
2022/04/16 07:12:11;;;;;;;16.27;10.93;;;9.00;99.90;;;;;;5114614;28;20047;-77
2022/04/16 07:14:40;;;;;;;16.67;11.65;;;9.10;99.90;;;;;;5114940;28;20494;-77
2022/04/16 07:17:09;;;;;;;15.65;11.35;;;9.20;99.90;;;;;;5116783;28;20046;-76
2022/04/16 07:19:36;;;;;;;15.65;10.35;;;9.30;99.90;;;;;;5115393;28;20479;-76
2022/04/16 07:22:03;;;;;;;17.92;11.38;;;9.30;99.90;;;;;;5098494;28;20035;-76
2022/04/16 07:24:28;;;;;;;19.42;11.25;;;9.30;99.90;;;;;;5116289;28;20040;-76
2022/04/16 07:26:55;;;;;;;15.57;11.15;;;9.40;99.90;;;;;;5115551;28;20112;-76
2022/04/16 07:29:22;;;;;;;14.52;11.35;;;9.40;99.90;;;;;;5116067;28;20040;-76
2022/04/16 07:31:48;;;;;;;16.67;10.98;;;9.50;99.90;;;;;;5116451;28;20398;-74
2022/04/16 07:34:14;;;;;;;16.20;10.48;;;9.50;99.90;;;;;;5115156;28;20528;-74
2022/04/16 07:36:45;;;;;;;20.73;11.73;;;9.60;99.90;;;;;;5115095;28;20135;-75
2022/04/16 07:39:12;;;;;;;17.95;11.05;;;9.60;99.90;;;;;;5115155;28;20093;-74
2022/04/16 07:41:38;;;;;;;16.05;10.43;;;9.70;99.90;;;;;;5115143;28;20065;-74
2022/04/16 07:44:05;;;;;;;14.57;9.77;;;9.70;99.90;;;;;;5096817;28;20379;-74
2022/04/16 07:46:31;;;;;;;17.98;9.98;;;9.80;99.90;;;;;;5113729;28;20032;-75
2022/04/16 07:48:58;;;;;;;15.77;10.27;;;9.80;99.90;;;;;;5113839;28;20055;-74
2022/04/16 07:51:24;;;;;;;14.52;10.40;;;9.90;99.90;;;;;;5114730;28;20051;-74
2022/04/16 07:53:51;;;;;;;16.08;10.00;;;9.90;99.90;;;;;;5114844;28;20074;-75
2022/04/16 07:56:16;;;;;;;15.77;10.25;;;9.90;99.90;;;;;;5115385;28;20048;-76
2022/04/16 07:58:42;;;;;;;12.68;8.82;;;10.00;99.90;;;;;;5115362;28;20043;-75
2022/04/16 08:01:08;;;;;;;12.52;8.77;;;10.00;99.90;;;;;;5114581;28;20039;-76
2022/04/16 08:03:34;;;;;;;15.13;9.18;;;10.00;99.90;;;;;;5115273;28;20042;-76
2022/04/16 08:05:59;;;;;;;14.60;9.77;;;10.10;99.90;;;;;;5114917;28;20526;-75
2022/04/16 08:08:25;;;;;;;16.15;10.18;;;10.10;99.90;;;;;;5113151;28;20054;-76
2022/04/16 08:10:52;;;;;;;16.52;9.85;;;10.20;99.90;;;;;;5114274;28;20040;-75
2022/04/16 08:13:19;;;;;;;12.00;8.98;;;10.20;99.90;;;;;;5113770;28;20051;-75
2022/04/16 08:15:46;;;;;;;14.50;8.75;;;10.30;99.90;;;;;;5112997;28;20043;-76
2022/04/16 08:18:12;;;;;;;12.93;8.98;;;10.30;99.90;;;;;;5115098;28;20054;-76
2022/04/16 08:20:38;;;;;;;12.43;8.48;;;10.40;99.90;;;;;;5114307;28;20433;-74
2022/04/16 08:23:06;;;;;;;13.70;8.57;;;10.50;99.90;;;;;;5113007;28;20118;-74
2022/04/16 08:28:02;;;;;;;11.38;8.25;;;10.60;99.90;;;;;;5115102;28;20078;-75
2022/04/16 08:30:29;;;;;;;10.13;7.50;;;10.70;99.90;;;;;;5112431;28;20096;-74
2022/04/16 08:32:54;;;;;;;14.00;7.82;;;10.70;99.90;;;;;;5113201;28;20040;-73
2022/04/16 08:35:21;;;;;;;12.23;7.97;;;10.70;99.90;;;;;;5112815;28;20134;-73
2022/04/16 08:37:48;;;;;;;11.48;7.88;;;10.80;99.90;;;;;;5113494;28;20093;-73
2022/04/16 08:40:16;;;;;;;9.13;6.80;;;10.70;99.90;;;;;;5114223;28;20044;-73
2022/04/16 08:42:43;;;;;;;9.50;7.68;;;10.90;99.90;;;;;;5112506;28;20052;-74
2022/04/16 08:45:10;;;;;;;12.93;7.50;;;10.90;99.90;;;;;;5113800;28;20090;-74
2022/04/16 08:47:38;;;;;;;11.63;7.78;;;11.00;99.90;;;;;;5114645;28;20146;-74
2022/04/16 08:50:06;;;;;;;10.38;6.45;;;11.10;99.90;;;;;;5113224;28;20127;-73
2022/04/16 08:52:34;;;;;;;10.23;7.05;;;11.10;99.90;;;;;;5114515;28;20055;-74
2022/04/16 08:55:02;;;;;;;9.73;6.20;;;11.20;99.90;;;;;;5113253;28;20478;-73
2022/04/16 08:57:28;;;;;;;10.05;6.00;;;11.30;99.90;;;;;;5112544;28;20047;-74
2022/04/16 08:59:57;;;;;;;10.35;5.72;;;11.30;99.90;;;;;;5113964;28;20066;-74
2022/04/16 09:02:24;;;;;;;7.60;4.88;;;11.30;99.90;;;;;;5114515;28;20391;-74
2022/04/16 09:05:04;;;;;;;6.55;4.65;;;11.40;99.90;;;;;;5112155;28;20487;-73
2022/04/16 09:07:29;;;;;;;7.82;4.75;;;11.40;99.90;;;;;;5114690;28;20383;-73
2022/04/16 09:10:08;;;;;;;8.48;4.93;;;11.50;99.90;;;;;;5099070;28;20158;-73
2022/04/16 09:12:38;;;;;;;8.60;4.43;;;11.50;99.90;;;;;;5092176;28;20051;-73
2022/04/16 09:15:06;;;;;;;6.85;4.00;;;11.50;99.90;;;;;;5124448;27;20052;-74
2022/04/16 09:17:32;;;;;;;6.65;4.18;;;11.60;99.90;;;;;;5111736;28;20048;-73
2022/04/16 09:19:58;;;;;;;3.55;3.00;;;11.70;99.90;;;;;;5113645;28;20048;-75
2022/04/16 09:22:35;;;;;;;5.50;3.80;;;11.70;99.90;;;;;;5124851;27;20088;-75
2022/04/16 09:25:02;;;;;;;5.00;3.20;;;11.70;99.90;;;;;;5108773;28;20140;-75
2022/04/16 09:27:39;;;;;;;5.18;2.78;;;11.70;99.90;;;;;;5105444;28;20057;-75
2022/04/16 09:30:05;;;;;;;7.68;3.13;;;11.80;99.90;;;;;;5112989;28;20048;-74
2022/04/16 09:32:43;;;;;;;4.38;2.72;;;11.80;99.90;;;;;;5112927;28;20486;-74
2022/04/16 09:35:20;;;;;;;3.75;2.75;;;11.80;99.90;;;;;;5113017;28;20040;-74
2022/04/16 09:37:56;;;;;;;3.92;2.45;;;11.90;99.90;;;;;;5113848;28;20055;-75
2022/04/16 09:40:35;;;;;;;4.88;2.67;;;12.00;99.90;;;;;;5113056;28;20486;-74
2022/04/16 09:43:03;;;;;;;4.47;2.63;;;12.10;99.90;;;;;;5112628;28;20040;-74
2022/04/16 09:45:30;;;;;;;5.13;2.38;;;12.20;99.90;;;;;;5113889;28;20042;-74
2022/04/16 09:47:57;;;;;;;6.03;2.55;;;12.30;99.90;;;;;;5111948;28;20204;-74
2022/04/16 09:50:29;;;;;;;3.42;2.70;;;12.40;99.90;;;;;;5110379;28;20048;-74
2022/04/16 09:53:00;;;;;;;3.47;2.30;;;12.40;99.90;;;;;;5112516;28;20051;-74
2022/04/16 09:55:29;;;;;;;3.75;2.58;;;12.50;99.90;;;;;;5112808;28;20047;-74
2022/04/16 09:58:04;;;;;;;3.10;2.38;;;12.60;99.90;;;;;;5113759;28;20089;-75
2022/04/16 10:00:33;;;;;;;;;;;12.70;99.90;;;;;;5113864;28;20047;-75
2022/04/16 10:03:06;;;;;;;4.13;2.30;;;12.80;99.90;;;;;;5116977;28;20355;-75
2022/04/16 10:05:32;;;;;;;6.32;2.33;;;12.90;99.90;;;;;;5116501;28;20055;-75
2022/04/16 10:07:59;;;;;;;5.47;1.80;;;13.10;99.90;;;;;;5098738;28;20040;-76
2022/04/16 10:10:30;;;;;;;5.38;1.80;;;13.30;99.90;;;;;;5117494;28;20055;-75
2022/04/16 10:13:08;;;;;;;2.67;1.70;;;13.50;99.90;;;;;;5117501;28;20055;-75
2022/04/16 10:15:55;;;;;;;2.80;1.83;;;13.70;97.90;;;;;;5115151;28;20519;-75
2022/04/16 10:18:21;;;;;;;5.85;1.55;;;13.90;96.90;;;;;;5116795;28;20123;-75
2022/04/16 10:20:59;;;;;;;2.38;1.80;;;14.10;96.90;;;;;;5115195;28;20118;-75
2022/04/16 10:23:37;;;;;;;5.10;2.13;;;14.10;95.60;;;;;;5111780;28;20364;-75
2022/04/16 10:26:15;;;;;;;4.32;1.83;;;14.30;95.00;;;;;;5106228;28;20456;-75
2022/04/16 10:28:51;;;;;;;2.65;1.40;;;14.40;95.30;;;;;;5102358;28;20136;-75
2022/04/16 10:31:27;;;;;;;3.55;2.20;;;14.50;94.40;;;;;;5112905;28;20040;-76
2022/04/16 10:34:10;;;;;;;4.03;2.47;;;14.50;92.00;;;;;;5097194;28;20124;-75
2022/04/16 10:36:40;;;;;;;3.83;2.17;;;14.70;93.50;;;;;;5108437;28;20069;-75
2022/04/16 10:39:18;;;;;;;5.03;2.05;;;14.80;93.60;;;;;;5097444;28;20420;-75
2022/04/16 10:41:55;;;;;;;2.60;2.17;;;15.00;89.50;;;;;;5109466;27;20052;-75
2022/04/16 10:44:21;;;;;;;2.70;1.70;;;14.90;90.30;;;;;;5128260;27;20192;-74
2022/04/16 10:46:49;;;;;;;3.15;2.30;;;15.00;92.60;;;;;;5116596;28;20035;-74
2022/04/16 10:49:16;;;;;;;5.75;1.90;;;15.10;92.20;;;;;;5113687;28;20047;-76
2022/04/16 10:51:42;;;;;;;3.72;1.63;;;15.30;91.80;;;;;;5113797;28;20584;-75
2022/04/16 10:54:31;;;;;;;3.42;2.15;;;15.40;91.10;;;;;;5121182;27;20055;-75
2022/04/16 10:56:57;;;;;;;2.83;2.00;;;15.50;88.40;;;;;;5113618;28;20058;-75
2022/04/16 10:59:42;;;;;;;5.45;2.10;;;15.70;89.90;;;;;;5114236;28;20421;-75
2022/04/16 11:02:35;;;;;;;2.85;2.10;;;15.80;81.10;;;;;;5114628;28;20048;-75
2022/04/16 11:05:05;;;;;;;2.17;1.98;;;15.70;81.10;;;;;;5108057;28;20147;-75
2022/04/16 11:07:36;;;;;;;2.65;1.95;;;15.80;86.50;;;;;;5096511;28;20040;-75
2022/04/16 11:10:06;;;;;;;2.20;1.45;;;15.90;85.00;;;;;;5094444;28;20044;-75
2022/04/16 11:12:32;;;;;;;2.47;1.63;;;16.00;82.10;;;;;;5094698;28;20051;-75
2022/04/16 11:15:01;;;;;;;2.50;1.25;;;16.00;81.50;;;;;;5095847;28;20040;-75
2022/04/16 11:17:27;;;;;;;2.30;1.38;;;15.90;76.40;;;;;;5095410;28;20036;-75
2022/04/16 11:20:06;;;;;;;1.55;1.08;;;15.80;75.00;;;;;;5096332;28;20047;-75
2022/04/16 11:22:32;;;;;;;1.95;1.35;;;15.70;70.40;;;;;;5096136;28;20044;-75
2022/04/16 11:24:59;;;;;;;1.52;1.05;;;15.60;72.00;;;;;;5093963;28;20085;-74
2022/04/16 11:35:57;;;;;;;1.23;0.60;;;15.60;66.40;;;;;;5094656;28;20131;-74
2022/04/16 11:38:33;;;;;;;2.20;0.70;;;15.70;64.00;;;;;;5093667;28;20487;-74
2022/04/16 11:41:00;;;;;;;1.90;0.50;;;15.80;61.40;;;;;;5095928;28;20043;-75
2022/04/16 11:43:30;;;;;;;3.10;0.60;;;15.90;62.00;;;;;;5095796;28;20491;-75
2022/04/16 11:45:56;;;;;;;1.45;0.63;;;16.00;60.60;;;;;;5094835;28;20047;-75
2022/04/16 11:48:22;;;;;;;4.35;1.00;;;16.10;59.10;;;;;;5095633;28;20395;-75
2022/04/16 11:50:49;;;;;;;2.03;0.80;;;16.20;59.30;;;;;;5094127;28;20491;-75
2022/04/16 11:53:15;;;;;;;3.13;0.52;;;16.20;58.00;;;;;;5094618;28;20048;-74
2022/04/16 11:55:49;;;;;;;1.20;0.90;;;16.20;58.40;;;;;;5094278;28;20131;-74
2022/04/16 11:58:15;;;;;;;0.75;0.57;;;16.30;56.80;;;;;;5095699;28;20056;-75
2022/04/16 12:00:54;;;;;;;3.25;0.60;;;16.30;57.70;;;;;;5110309;28;20056;-74
2022/04/16 12:03:20;;;;;;;3.17;0.80;;;16.30;55.80;;;;;;5111361;28;20052;-74
2022/04/16 12:05:49;;;;;;;1.10;0.82;;;16.40;55.90;;;;;;5094356;28;20054;-75
2022/04/16 12:08:18;;;;;;;1.30;0.65;;;16.40;55.50;;;;;;5110333;28;20062;-74
2022/04/16 12:10:45;;;;;;;0.40;0.40;;;16.40;56.10;;;;;;5094139;28;20361;-74
2022/04/16 12:13:12;;;;;;;4.05;0.63;;;16.50;54.80;;;;;;5095002;28;20402;-74
2022/04/16 12:15:43;;;;;;;0.45;0.45;;;16.50;54.30;;;;;;5110349;28;20514;-74
2022/04/16 12:18:22;;;;;;;1.40;0.45;;;16.60;52.70;;;;;;5095080;28;20075;-75
2022/04/16 12:20:49;;;;;;;0.43;0.40;;;16.70;53.80;;;;;;5093219;28;20090;-75
2022/04/16 12:23:24;;;;;;;3.38;0.50;;;16.80;53.80;;;;;;5093911;28;20495;-75
2022/04/16 12:26:05;;;;;;;2.08;0.43;;;16.80;52.50;;;;;;5095032;28;20036;-74
2022/04/16 12:28:39;;;;;;;2.53;0.40;;;16.80;49.10;;;;;;5094094;28;20415;-75
2022/04/16 12:31:05;;;;;;;2.03;0.57;;;16.90;50.90;;;;;;5094886;28;20100;-75
2022/04/16 12:33:31;;;;;;;1.30;0.60;;;16.80;51.70;;;;;;5093479;28;20051;-75
2022/04/16 12:35:59;;;;;;;1.08;0.60;;;16.90;51.60;;;;;;5094128;28;20036;-74
2022/04/16 12:38:25;;;;;;;1.73;0.65;;;16.90;51.70;;;;;;5094802;28;20044;-75
2022/04/16 12:41:04;;;;;;;1.80;0.73;;;16.90;53.40;;;;;;5094675;28;20066;-75
2022/04/16 12:43:30;;;;;;;1.92;0.73;;;16.90;53.20;;;;;;5093907;28;20061;-75
2022/04/16 12:45:55;;;;;;;2.03;0.70;;;16.80;52.30;;;;;;5094627;28;20177;-75
2022/04/16 12:48:21;;;;;;;1.17;0.57;;;16.70;52.10;;;;;;5094431;28;20444;-75
2022/04/16 12:50:47;;;;;;;3.50;0.55;;;16.70;53.60;;;;;;5109160;28;20442;-75
2022/04/16 12:53:13;;;;;;;1.17;0.50;;;16.60;52.50;;;;;;5093049;28;20043;-75
2022/04/16 12:55:39;;;;;;;1.67;0.70;;;16.60;53.70;;;;;;5093694;28;20101;-75
2022/04/16 12:58:05;;;;;;;2.00;0.73;;;16.60;53.40;;;;;;5094196;28;20537;-75
2022/04/16 13:00:31;;;;;;;1.55;0.60;;;16.70;53.20;;;;;;5092894;28;20044;-75
2022/04/16 13:02:59;;;;;;;0.75;0.57;;;16.70;51.90;;;;;;5092214;28;20124;-75
2022/04/16 13:05:29;;;;;;;2.20;0.63;;;16.70;52.90;;;;;;5092955;28;20040;-74